createdAt,value
2017-07-21T05:40:49.834Z,986.35
2017-07-21T05:41:52.134Z,986.51
2017-07-21T05:42:54.540Z,986.47
2017-07-21T05:43:57.014Z,986.42
2017-07-21T05:44:59.336Z,986.44
2017-07-21T05:46:01.687Z,986.44
2017-07-21T05:47:03.930Z,986.48
2017-07-21T05:48:06.338Z,986.49
2017-07-21T05:49:08.878Z,986.45
2017-07-21T05:50:11.253Z,986.37
2017-07-21T05:51:13.672Z,986.36
2017-07-21T05:52:16.054Z,986.44
2017-07-21T05:53:18.417Z,986.38
2017-07-21T05:54:20.621Z,986.36
2017-07-21T05:55:22.921Z,986.40
2017-07-21T05:56:25.396Z,986.38
2017-07-21T05:57:27.860Z,986.40
2017-07-21T05:58:30.298Z,986.34
2017-07-21T05:59:32.520Z,986.35
2017-07-21T06:00:34.884Z,986.43
2017-07-21T06:01:37.109Z,986.40
2017-07-21T06:02:39.501Z,986.41
2017-07-21T06:03:41.885Z,986.40
2017-07-21T06:04:45.120Z,986.39
2017-07-21T06:05:47.431Z,986.38
2017-07-21T06:06:49.741Z,986.34
2017-07-21T06:07:52.129Z,986.43
2017-07-21T06:08:54.424Z,986.38
2017-07-21T06:09:56.855Z,986.37
2017-07-21T06:10:59.125Z,986.35
2017-07-21T06:12:01.477Z,986.27
2017-07-21T06:13:03.816Z,986.30
2017-07-21T06:14:06.186Z,986.34
2017-07-21T06:15:08.607Z,986.34
2017-07-21T06:16:10.981Z,986.39
2017-07-21T06:17:13.353Z,986.35
2017-07-21T06:18:15.695Z,986.39
2017-07-21T06:19:18.114Z,986.32
2017-07-21T06:20:20.553Z,986.36
2017-07-21T06:21:22.945Z,986.35
2017-07-21T06:22:25.317Z,986.29
2017-07-21T06:23:27.727Z,986.36
2017-07-21T06:24:30.085Z,986.37
2017-07-21T06:25:32.481Z,986.34
2017-07-21T06:26:34.953Z,986.38
2017-07-21T06:27:37.372Z,986.41
2017-07-21T06:28:39.926Z,986.37
2017-07-21T06:29:42.148Z,986.36
2017-07-21T06:30:44.616Z,986.35
2017-07-21T06:31:47.094Z,986.31
2017-07-21T06:32:49.473Z,986.32
2017-07-21T06:33:52.073Z,986.34
2017-07-21T06:34:54.494Z,986.33
2017-07-21T06:35:56.800Z,986.33
2017-07-21T06:36:59.148Z,986.27
2017-07-21T06:38:01.553Z,986.25
2017-07-21T06:39:03.836Z,986.27
2017-07-21T06:40:06.108Z,986.23
2017-07-21T06:41:08.463Z,986.31
2017-07-21T06:42:12.274Z,986.30
2017-07-21T06:43:14.521Z,986.28
2017-07-21T06:44:16.925Z,986.32
2017-07-21T06:45:19.233Z,986.38
2017-07-21T06:46:21.784Z,986.31
2017-07-21T06:47:24.299Z,986.37
2017-07-21T06:48:27.076Z,986.39
2017-07-21T06:49:29.379Z,986.36
2017-07-21T06:50:31.728Z,986.34
2017-07-21T06:51:34.210Z,986.35
2017-07-21T06:52:36.613Z,986.39
2017-07-21T06:53:38.991Z,986.37
2017-07-21T06:54:41.422Z,986.39
2017-07-21T06:55:43.989Z,986.31
2017-07-21T06:56:46.378Z,986.30
2017-07-21T06:57:48.835Z,986.31
2017-07-21T06:58:51.211Z,986.35
2017-07-21T06:59:53.810Z,986.32
2017-07-21T07:00:56.070Z,986.30
2017-07-21T07:01:58.313Z,986.36
2017-07-21T07:03:02.957Z,986.33
2017-07-21T07:04:05.239Z,986.34
2017-07-21T07:05:07.599Z,986.41
2017-07-21T07:06:09.917Z,986.41
2017-07-21T07:07:12.256Z,986.42
2017-07-21T07:08:14.594Z,986.36
2017-07-21T07:09:16.902Z,986.35
2017-07-21T07:10:19.249Z,986.37
2017-07-21T07:11:21.588Z,986.33
2017-07-21T07:12:24.081Z,986.34
2017-07-21T07:13:26.465Z,986.46
2017-07-21T07:14:28.780Z,986.40
2017-07-21T07:15:31.143Z,986.44
2017-07-21T07:16:33.476Z,986.38
2017-07-21T07:17:35.703Z,986.39
2017-07-21T07:18:37.971Z,986.37
2017-07-21T07:19:40.344Z,986.39
2017-07-21T07:20:42.783Z,986.39
2017-07-21T07:21:45.186Z,986.35
2017-07-21T07:22:47.384Z,986.42
2017-07-21T07:23:49.903Z,986.41
2017-07-21T07:24:52.317Z,986.45
2017-07-21T07:25:54.673Z,986.42
2017-07-21T07:26:57.048Z,986.46
2017-07-21T07:27:59.424Z,986.40
2017-07-21T07:29:01.854Z,986.45
2017-07-21T07:30:04.106Z,986.44
2017-07-21T07:31:06.497Z,986.46
2017-07-21T07:32:08.769Z,986.44
2017-07-21T07:33:11.014Z,986.45
2017-07-21T07:34:13.266Z,986.39
2017-07-21T07:35:15.613Z,986.50
2017-07-21T07:36:18.073Z,986.46
2017-07-21T07:37:20.555Z,986.42
2017-07-21T07:38:22.998Z,986.41
2017-07-21T07:39:25.521Z,986.40
2017-07-21T07:40:28.025Z,986.40
2017-07-21T07:41:30.383Z,986.41
2017-07-21T07:42:32.676Z,986.46
2017-07-21T07:43:35.045Z,986.43
2017-07-21T07:44:37.394Z,986.47
2017-07-21T07:45:39.942Z,986.40
2017-07-21T07:46:42.229Z,986.34
2017-07-21T07:47:44.507Z,986.41
2017-07-21T07:48:46.864Z,986.43
2017-07-21T07:49:49.193Z,986.40
2017-07-21T07:50:51.555Z,986.31
2017-07-21T07:51:53.935Z,986.33
2017-07-21T07:52:56.384Z,986.32
2017-07-21T07:53:58.926Z,986.34
2017-07-21T07:55:01.375Z,986.33
2017-07-21T07:56:03.818Z,986.26
2017-07-21T07:57:06.165Z,986.30
2017-07-21T07:58:08.393Z,986.33
2017-07-21T07:59:10.598Z,986.27
2017-07-21T08:00:12.913Z,986.33
2017-07-21T08:01:15.240Z,986.35
2017-07-21T08:02:17.536Z,986.33
2017-07-21T08:03:19.993Z,986.39
2017-07-21T08:04:22.350Z,986.24
2017-07-21T08:05:24.737Z,986.28
2017-07-21T08:06:26.983Z,986.30
2017-07-21T08:07:29.380Z,986.23
2017-07-21T08:08:33.479Z,986.23
2017-07-21T08:09:36.565Z,986.17
2017-07-21T08:10:38.863Z,986.15
2017-07-21T08:11:42.665Z,986.19
2017-07-21T08:12:45.002Z,986.19
2017-07-21T08:13:47.316Z,986.18
2017-07-21T08:14:49.648Z,986.21
2017-07-21T08:15:52.090Z,986.18
2017-07-21T08:16:54.423Z,986.15
2017-07-21T08:17:58.832Z,986.16
2017-07-21T08:19:01.416Z,986.17
2017-07-21T08:20:03.858Z,986.13
2017-07-21T08:21:06.224Z,986.14
2017-07-21T08:22:08.576Z,986.17
2017-07-21T08:23:11.003Z,986.07
2017-07-21T08:24:13.466Z,986.13
2017-07-21T08:25:15.749Z,986.15
2017-07-21T08:26:18.056Z,986.11
2017-07-21T08:27:20.500Z,986.06
2017-07-21T08:28:22.777Z,986.17
2017-07-21T08:29:25.149Z,986.20
2017-07-21T08:30:27.548Z,986.13
2017-07-21T08:31:29.853Z,986.18
2017-07-21T08:32:32.057Z,986.12
2017-07-21T08:33:34.408Z,986.11
2017-07-21T08:34:36.779Z,986.05
2017-07-21T08:35:39.261Z,986.10
2017-07-21T08:36:41.721Z,986.08
2017-07-21T08:37:44.211Z,986.08
2017-07-21T08:38:46.568Z,986.08
2017-07-21T08:39:48.972Z,986.01
2017-07-21T08:40:51.329Z,986.01
2017-07-21T08:41:53.660Z,986.09
2017-07-21T08:42:55.999Z,986.05
2017-07-21T08:43:58.206Z,986.08
2017-07-21T08:45:00.645Z,986.08
2017-07-21T08:46:03.081Z,986.04
2017-07-21T08:47:05.368Z,986.01
2017-07-21T08:48:07.853Z,986.04
2017-07-21T08:49:10.273Z,986.04
2017-07-21T08:50:12.656Z,986.05
2017-07-21T08:51:15.008Z,986.03
2017-07-21T08:52:17.397Z,986.02
2017-07-21T08:53:19.855Z,986.03
2017-07-21T08:54:22.255Z,985.97
2017-07-21T08:55:24.509Z,985.93
2017-07-21T08:56:26.821Z,985.90
2017-07-21T08:57:29.180Z,985.92
2017-07-21T08:58:31.602Z,985.90
2017-07-21T08:59:33.975Z,985.90
2017-07-21T09:00:36.328Z,985.84
2017-07-21T09:01:38.613Z,985.85
2017-07-21T09:02:41.084Z,985.83
2017-07-21T09:03:43.512Z,985.77
2017-07-21T09:04:45.926Z,985.83
2017-07-21T09:05:48.300Z,985.80
2017-07-21T09:06:50.757Z,985.74
2017-07-21T09:07:53.145Z,985.87
2017-07-21T09:08:55.658Z,985.79
2017-07-21T09:09:58.102Z,985.74
2017-07-21T09:11:00.412Z,985.82
2017-07-21T09:12:02.709Z,985.82
2017-07-21T09:13:05.113Z,985.81
2017-07-21T09:14:07.503Z,985.82
2017-07-21T09:15:09.871Z,985.79
2017-07-21T09:17:20.363Z,985.75
2017-07-21T09:18:22.683Z,985.76
2017-07-21T09:19:25.124Z,985.60
2017-07-21T09:20:27.550Z,985.68
2017-07-21T09:21:29.994Z,985.75
2017-07-21T09:22:32.351Z,985.75
2017-07-21T09:23:34.777Z,985.65
2017-07-21T09:24:37.153Z,985.73
2017-07-21T09:25:39.564Z,985.72
2017-07-21T09:26:41.893Z,985.67
2017-07-21T09:27:44.308Z,985.72
2017-07-21T09:28:46.781Z,985.73
2017-07-21T09:29:49.157Z,985.70
2017-07-21T09:30:51.426Z,985.70
2017-07-21T09:31:53.863Z,985.67
2017-07-21T09:32:56.196Z,985.69
2017-07-21T09:33:58.588Z,985.64
2017-07-21T09:35:00.946Z,985.63
2017-07-21T09:36:03.142Z,985.63
2017-07-21T09:37:05.578Z,985.63
2017-07-21T09:38:07.989Z,985.65
2017-07-21T09:39:10.425Z,985.67
2017-07-21T09:40:12.849Z,985.56
2017-07-21T09:41:15.468Z,985.59
2017-07-21T09:42:17.713Z,985.69
2017-07-21T09:43:20.102Z,985.62
2017-07-21T09:44:22.463Z,985.67
2017-07-21T09:45:24.756Z,985.56
2017-07-21T09:46:27.043Z,985.67
2017-07-21T09:47:29.431Z,985.64
2017-07-21T09:48:32.476Z,985.60
2017-07-21T09:49:35.554Z,985.60
2017-07-21T09:50:37.900Z,985.61
2017-07-21T09:51:40.292Z,985.56
2017-07-21T09:52:42.609Z,985.59
2017-07-21T09:53:45.004Z,985.57
2017-07-21T09:54:47.344Z,985.56
2017-07-21T09:55:49.656Z,985.53
2017-07-21T09:56:52.109Z,985.60
2017-07-21T09:57:54.541Z,985.65
2017-07-21T09:58:56.969Z,985.55
2017-07-21T09:59:59.479Z,985.53
2017-07-21T10:01:01.708Z,985.56
2017-07-21T10:02:04.081Z,985.50
2017-07-21T10:03:06.382Z,985.53
2017-07-21T10:04:08.761Z,985.52
2017-07-21T10:05:11.172Z,985.51
2017-07-21T10:06:13.666Z,985.56
2017-07-21T10:07:15.891Z,985.55
2017-07-21T10:08:18.393Z,985.54
2017-07-21T10:09:20.708Z,985.51
2017-07-21T10:10:23.077Z,985.42
2017-07-21T10:11:25.551Z,985.47
2017-07-21T10:12:27.961Z,985.50
2017-07-21T10:13:30.426Z,985.46
2017-07-21T10:14:32.809Z,985.46
2017-07-21T10:15:35.137Z,985.49
2017-07-21T10:16:37.557Z,985.40
2017-07-21T10:17:39.923Z,985.40
2017-07-21T10:18:42.296Z,985.48
2017-07-21T10:19:44.573Z,985.46
2017-07-21T10:20:46.948Z,985.44
2017-07-21T10:21:49.315Z,985.52
2017-07-21T10:22:51.647Z,985.40
2017-07-21T10:23:53.976Z,985.42
2017-07-21T10:24:56.368Z,985.47
2017-07-21T10:25:58.788Z,985.37
2017-07-21T10:27:01.151Z,985.49
2017-07-21T10:28:03.650Z,985.36
2017-07-21T10:29:05.920Z,985.37
2017-07-21T10:30:08.293Z,985.35
2017-07-21T10:31:10.486Z,985.29
2017-07-21T10:32:12.858Z,985.24
2017-07-21T10:33:15.331Z,985.22
2017-07-21T10:34:17.785Z,985.25
2017-07-21T10:35:20.289Z,985.26
2017-07-21T10:36:22.632Z,985.21
2017-07-21T10:37:24.872Z,985.13
2017-07-21T10:38:27.172Z,985.18
2017-07-21T10:39:29.561Z,985.11
2017-07-21T10:40:31.888Z,985.14
2017-07-21T10:41:34.249Z,985.12
2017-07-21T10:42:36.582Z,985.15
2017-07-21T10:43:38.868Z,985.20
2017-07-21T10:44:41.316Z,985.13
2017-07-21T10:45:43.682Z,985.12
2017-07-21T10:46:46.088Z,985.09
2017-07-21T10:47:48.434Z,985.06
2017-07-21T10:48:50.838Z,985.11
2017-07-21T10:49:53.233Z,985.10
2017-07-21T10:50:55.612Z,985.09
2017-07-21T10:51:57.992Z,985.04
2017-07-21T10:53:00.325Z,985.02
2017-07-21T10:54:02.659Z,985.06
2017-07-21T10:55:05.033Z,985.08
2017-07-21T10:56:07.357Z,985.01
2017-07-21T10:57:09.880Z,985.08
2017-07-21T10:58:12.330Z,985.10
2017-07-21T10:59:14.684Z,984.95
2017-07-21T11:00:17.123Z,985.01
2017-07-21T11:01:19.592Z,984.98
2017-07-21T11:02:22.065Z,985.01
2017-07-21T11:03:24.489Z,985.01
2017-07-21T11:04:26.909Z,984.98
2017-07-21T11:05:29.353Z,984.99
2017-07-21T11:06:32.504Z,984.98
2017-07-21T11:07:34.876Z,984.99
2017-07-21T11:08:37.316Z,984.91
2017-07-21T11:09:39.617Z,984.94
2017-07-21T11:10:42.011Z,984.85
2017-07-21T11:11:44.377Z,984.82
2017-07-21T11:12:46.684Z,984.86
2017-07-21T11:13:48.882Z,984.89
2017-07-21T11:14:51.196Z,984.85
2017-07-21T11:15:53.410Z,984.89
2017-07-21T11:16:55.812Z,984.89
2017-07-21T11:17:58.132Z,984.82
2017-07-21T11:19:00.491Z,984.82
2017-07-21T11:20:02.837Z,984.80
2017-07-21T11:21:05.136Z,984.80
2017-07-21T11:22:07.365Z,984.77
2017-07-21T11:23:09.748Z,984.80
2017-07-21T11:24:12.034Z,984.80
2017-07-21T11:25:14.388Z,984.81
2017-07-21T11:26:16.741Z,984.75
2017-07-21T11:27:19.107Z,984.75
2017-07-21T11:28:21.285Z,984.81
2017-07-21T11:29:23.685Z,984.74
2017-07-21T11:30:26.073Z,984.76
2017-07-21T11:31:28.538Z,984.73
2017-07-21T11:32:30.856Z,984.71
2017-07-21T11:33:33.212Z,984.67
2017-07-21T11:34:35.616Z,984.64
2017-07-21T11:35:37.979Z,984.70
2017-07-21T11:36:40.433Z,984.72
2017-07-21T11:37:42.862Z,984.68
2017-07-21T11:38:45.186Z,984.67
2017-07-21T11:39:47.497Z,984.68
2017-07-21T11:40:49.850Z,984.71
2017-07-21T11:41:52.384Z,984.58
2017-07-21T11:42:54.793Z,984.57
2017-07-21T12:20:06.145Z,984.57
2017-07-21T12:21:08.540Z,984.70
2017-07-21T12:22:10.856Z,984.62
2017-07-21T12:25:09.272Z,984.64
2017-07-21T12:26:11.469Z,984.56
2017-07-21T12:27:13.843Z,984.77
2017-07-21T12:28:16.311Z,984.74
2017-07-21T12:29:18.687Z,984.68
2017-07-21T12:30:22.153Z,984.66
2017-07-21T12:31:24.931Z,984.67
2017-07-21T12:32:27.344Z,984.65
2017-07-21T12:33:29.617Z,984.66
2017-07-21T12:34:32.236Z,984.66
2017-07-21T12:35:34.938Z,984.64
2017-07-21T12:36:37.741Z,984.64
2017-07-21T12:37:40.017Z,984.58
2017-07-21T12:38:42.484Z,984.60
2017-07-21T12:39:44.892Z,984.49
2017-07-21T12:40:47.252Z,984.54
2017-07-21T12:41:49.623Z,984.62
2017-07-21T12:42:52.036Z,984.55
2017-07-21T12:43:54.291Z,984.52
2017-07-21T12:44:56.583Z,984.53
2017-07-21T12:45:59.012Z,984.58
2017-07-21T12:46:51.493Z,984.48
2017-07-21T12:54:11.455Z,984.33
2017-07-21T12:56:36.400Z,984.27
2017-07-21T12:57:38.787Z,984.30
2017-07-21T12:58:41.212Z,984.27
2017-07-21T13:00:07.916Z,984.13
2017-07-21T13:01:25.344Z,984.25
2017-07-21T13:02:27.687Z,984.20
2017-07-21T13:03:29.996Z,984.22
2017-07-21T13:04:32.337Z,984.24
2017-07-21T13:05:34.768Z,984.29
2017-07-21T13:06:37.191Z,984.30
2017-07-21T13:07:39.612Z,984.29
2017-07-21T13:08:41.960Z,984.24
2017-07-21T13:09:44.451Z,984.26
2017-07-21T13:10:46.784Z,984.23
2017-07-21T13:11:49.189Z,984.31
2017-07-21T13:12:51.641Z,984.23
2017-07-21T13:13:53.956Z,984.29
2017-07-21T13:14:56.456Z,984.23
2017-07-21T13:15:58.836Z,984.22
2017-07-21T13:17:01.261Z,984.21
2017-07-21T13:18:04.172Z,984.18
2017-07-21T13:19:13.948Z,984.04
2017-07-21T13:20:11.171Z,984.20
2017-07-21T13:21:28.204Z,984.06
2017-07-21T13:22:26.001Z,984.16
2017-07-21T13:23:23.560Z,984.07
2017-07-21T13:24:20.833Z,984.11
2017-07-21T13:25:18.112Z,984.15
2017-07-21T13:26:15.331Z,984.15
2017-07-21T13:27:12.592Z,984.14
2017-07-21T13:27:51.692Z,984.07
2017-07-21T13:28:48.941Z,984.16
2017-07-21T13:29:46.272Z,984.13
2017-07-21T13:30:43.884Z,984.02
2017-07-21T13:31:41.112Z,984.01
2017-07-21T13:32:38.384Z,984.07
2017-07-21T13:33:35.603Z,984.06
2017-07-21T13:36:24.961Z,983.86
2017-07-21T13:37:22.229Z,983.92
2017-07-21T13:38:19.521Z,984.01
2017-07-21T13:39:16.789Z,983.99
2017-07-21T13:40:14.076Z,983.94
2017-07-21T13:41:11.333Z,983.90
2017-07-21T13:42:08.612Z,984.05
2017-07-21T13:43:05.877Z,983.99
2017-07-21T13:44:03.166Z,983.98
2017-07-21T13:45:00.434Z,983.93
2017-07-21T13:45:57.739Z,984.00
2017-07-21T13:46:54.996Z,983.88
2017-07-21T13:47:52.284Z,983.92
2017-07-21T13:48:49.553Z,983.90
2017-07-21T13:49:46.836Z,983.84
2017-07-21T13:50:44.134Z,983.87
2017-07-21T13:51:41.427Z,983.80
2017-07-21T13:52:38.688Z,983.81
2017-07-21T13:53:35.993Z,983.75
2017-07-21T13:54:33.245Z,983.78
2017-07-21T13:55:30.560Z,983.75
2017-07-21T13:56:27.838Z,983.75
2017-07-21T13:57:25.201Z,983.73
2017-07-21T13:58:22.466Z,983.67
2017-07-21T13:59:19.749Z,983.71
2017-07-21T14:00:17.020Z,983.69
2017-07-21T14:01:14.301Z,983.69
2017-07-21T14:02:11.561Z,983.65
2017-07-21T14:03:08.838Z,983.67
2017-07-21T14:04:06.091Z,983.64
2017-07-21T14:05:03.416Z,983.67
2017-07-21T14:06:00.695Z,983.56
2017-07-21T14:06:57.997Z,983.61
2017-07-21T14:07:55.272Z,983.58
2017-07-21T14:08:52.577Z,983.53
2017-07-21T14:09:49.851Z,983.52
2017-07-21T14:10:47.171Z,983.50
2017-07-21T14:11:44.488Z,983.43
2017-07-21T14:12:41.912Z,983.50
2017-07-21T14:13:39.165Z,983.39
2017-07-21T14:14:36.456Z,983.37
2017-07-21T14:15:33.761Z,983.36
2017-07-21T14:16:31.032Z,983.37
2017-07-21T14:17:28.297Z,983.36
2017-07-21T14:18:25.598Z,983.35
2017-07-21T14:19:22.848Z,983.31
2017-07-21T14:20:20.120Z,983.38
2017-07-21T14:21:17.461Z,983.37
2017-07-21T14:22:14.761Z,983.40
2017-07-21T14:23:12.060Z,983.42
2017-07-21T14:24:09.648Z,983.39
2017-07-21T14:25:07.168Z,983.43
2017-07-21T14:26:04.488Z,983.46
2017-07-21T14:27:01.752Z,983.32
2017-07-21T14:27:59.076Z,983.40
2017-07-21T14:28:56.340Z,983.43
2017-07-21T14:29:53.629Z,983.38
2017-07-21T14:30:50.869Z,983.32
2017-07-21T14:31:48.166Z,983.41
2017-07-21T14:32:45.429Z,983.37
2017-07-21T14:33:42.729Z,983.34
2017-07-21T14:34:39.988Z,983.35
2017-07-21T14:35:37.289Z,983.34
2017-07-21T14:36:34.558Z,983.28
2017-07-21T14:37:31.825Z,983.28
2017-07-21T14:38:29.152Z,983.28
2017-07-21T14:39:26.499Z,983.25
2017-07-21T14:40:23.755Z,983.26
2017-07-21T14:41:21.048Z,983.26
2017-07-21T14:42:18.312Z,983.27
2017-07-21T14:43:15.566Z,983.22
2017-07-21T14:44:12.868Z,983.29
2017-07-21T14:45:10.123Z,983.27
2017-07-21T14:46:07.360Z,983.29
2017-07-21T14:47:04.629Z,983.21
2017-07-21T14:48:01.897Z,983.24
2017-07-21T14:48:59.168Z,983.20
2017-07-21T14:49:56.456Z,983.18
2017-07-21T14:50:53.890Z,983.13
2017-07-21T14:51:53.267Z,983.17
2017-07-21T14:52:50.520Z,983.10
2017-07-21T14:53:47.893Z,983.14
2017-07-21T14:54:45.121Z,983.06
2017-07-21T14:55:42.385Z,983.14
2017-07-21T14:56:39.648Z,983.11
2017-07-21T14:57:36.996Z,983.03
2017-07-21T14:58:34.256Z,983.07
2017-07-21T14:59:31.515Z,983.13
2017-07-21T15:00:28.743Z,983.07
2017-07-21T15:01:26.004Z,983.14
2017-07-21T15:02:23.256Z,983.09
2017-07-21T15:03:20.539Z,983.04
2017-07-21T15:04:17.845Z,983.01
2017-07-21T15:05:15.294Z,982.93
2017-07-21T15:06:12.728Z,982.96
2017-07-21T15:07:10.020Z,982.93
2017-07-21T15:08:07.251Z,982.88
2017-07-21T15:09:04.697Z,982.89
2017-07-21T15:10:01.924Z,982.89
2017-07-21T15:10:59.200Z,982.91
2017-07-21T15:11:56.460Z,982.83
2017-07-21T15:12:53.748Z,982.78
2017-07-21T15:13:51.000Z,982.88
2017-07-21T15:14:48.312Z,982.78
2017-07-21T15:15:46.073Z,982.87
2017-07-21T15:16:43.872Z,982.83
2017-07-21T15:17:41.132Z,982.79
2017-07-21T15:18:38.392Z,982.79
2017-07-21T15:19:35.631Z,982.79
2017-07-21T15:20:32.895Z,982.75
2017-07-21T15:21:30.132Z,982.82
2017-07-21T15:22:27.424Z,982.76
2017-07-21T15:23:24.657Z,982.80
2017-07-21T15:24:21.924Z,982.69
2017-07-21T15:25:19.166Z,982.65
2017-07-21T15:26:16.430Z,982.69
2017-07-21T15:27:13.668Z,982.63
2017-07-21T15:28:10.949Z,982.65
2017-07-21T15:29:08.184Z,982.63
2017-07-21T15:30:05.436Z,982.65
2017-07-21T15:31:02.669Z,982.71
2017-07-21T15:31:59.940Z,982.70
2017-07-21T15:32:57.205Z,982.63
2017-07-21T15:33:54.476Z,982.61
2017-07-21T15:34:51.715Z,982.61
2017-07-21T15:35:48.974Z,982.62
2017-07-21T15:36:46.211Z,982.55
2017-07-21T15:37:43.507Z,982.61
2017-07-21T15:38:40.739Z,982.55
2017-07-21T15:39:38.001Z,982.58
2017-07-21T15:40:35.232Z,982.53
2017-07-21T15:41:32.492Z,982.53
2017-07-21T15:42:29.735Z,982.50
2017-07-21T15:43:27.020Z,982.50
2017-07-21T15:44:24.260Z,982.54
2017-07-21T15:45:21.528Z,982.51
2017-07-21T15:46:18.781Z,982.54
2017-07-21T15:47:16.049Z,982.49
2017-07-21T15:48:13.317Z,982.48
2017-07-21T15:49:10.573Z,982.46
2017-07-21T15:50:07.808Z,982.53
2017-07-21T15:51:05.104Z,982.49
2017-07-21T15:52:02.357Z,982.45
2017-07-21T15:52:59.636Z,982.48
2017-07-21T15:53:56.896Z,982.44
2017-07-21T15:54:54.244Z,982.42
2017-07-21T15:55:51.480Z,982.36
2017-07-21T15:56:48.758Z,982.43
2017-07-21T15:57:46.791Z,982.45
2017-07-21T15:58:45.562Z,982.41
2017-07-21T15:59:43.478Z,982.44
2017-07-21T16:00:40.774Z,982.42
2017-07-21T16:01:38.031Z,982.42
2017-07-21T16:02:37.244Z,982.44
2017-07-21T16:03:34.508Z,982.34
2017-07-21T16:04:31.775Z,982.43
2017-07-21T16:05:29.040Z,982.33
2017-07-21T16:06:26.312Z,982.28
2017-07-21T16:07:23.561Z,982.35
2017-07-21T16:08:20.868Z,982.27
2017-07-21T16:09:18.096Z,982.36
2017-07-21T16:10:15.361Z,982.31
2017-07-21T16:11:12.589Z,982.33
2017-07-21T16:12:10.180Z,982.30
2017-07-21T16:13:07.445Z,982.25
2017-07-21T16:14:04.721Z,982.25
2017-07-21T16:15:01.958Z,982.35
2017-07-21T16:15:59.225Z,982.27
2017-07-21T16:16:56.459Z,982.24
2017-07-21T16:17:53.737Z,982.24
2017-07-21T16:18:50.989Z,982.25
2017-07-21T16:19:48.236Z,982.24
2017-07-21T16:20:45.460Z,982.23
2017-07-21T16:21:42.721Z,982.21
2017-07-21T16:22:39.956Z,982.24
2017-07-21T16:23:37.352Z,982.24
2017-07-21T16:24:34.585Z,982.13
2017-07-21T16:25:31.866Z,982.16
2017-07-21T16:26:29.090Z,982.21
2017-07-21T16:27:26.356Z,982.00
2017-07-21T16:28:23.615Z,982.15
2017-07-21T16:29:20.880Z,982.03
2017-07-21T16:30:18.134Z,982.10
2017-07-21T16:31:15.468Z,981.95
2017-07-21T16:33:16.711Z,982.03
2017-07-21T16:34:13.969Z,981.95
2017-07-21T16:35:11.238Z,981.96
2017-07-21T16:36:08.460Z,982.02
2017-07-21T16:37:05.820Z,981.99
2017-07-21T16:38:03.048Z,981.94
2017-07-21T16:39:00.321Z,981.99
2017-07-21T16:39:57.543Z,982.02
2017-07-21T16:40:54.796Z,981.97
2017-07-21T16:48:25.490Z,982.21
2017-07-21T16:49:22.744Z,982.27
2017-07-21T16:50:20.021Z,982.21
2017-07-21T16:51:17.270Z,982.21
2017-07-21T16:52:14.535Z,982.21
2017-07-21T16:53:11.786Z,982.17
2017-07-21T16:54:09.101Z,982.15
2017-07-21T16:55:06.373Z,982.16
2017-07-21T16:56:03.657Z,982.22
2017-07-21T16:57:00.934Z,982.19
2017-07-21T16:57:58.232Z,982.25
2017-07-21T16:58:55.469Z,982.22
2017-07-21T16:59:52.761Z,982.22
2017-07-21T17:00:50.029Z,982.14
2017-07-21T17:01:47.318Z,982.21
2017-07-21T17:02:44.601Z,982.24
2017-07-21T17:03:41.889Z,982.27
2017-07-21T17:04:42.585Z,982.31
2017-07-21T17:05:42.252Z,982.33
2017-07-21T17:06:39.498Z,982.22
2017-07-21T17:07:36.761Z,982.25
2017-07-21T17:08:34.027Z,982.27
2017-07-21T17:09:31.349Z,982.27
2017-07-21T17:10:28.623Z,982.26
2017-07-21T17:11:25.918Z,982.24
2017-07-21T17:12:23.197Z,982.30
2017-07-21T17:13:20.474Z,982.26
2017-07-21T17:14:17.723Z,982.23
2017-07-21T17:15:15.044Z,982.28
2017-07-21T17:16:12.286Z,982.23
2017-07-21T17:17:09.677Z,982.21
2017-07-21T17:18:06.934Z,982.23
2017-07-21T17:19:04.223Z,982.20
2017-07-21T17:20:01.492Z,982.24
2017-07-21T17:20:58.893Z,982.23
2017-07-21T17:21:56.157Z,982.22
2017-07-21T17:22:53.544Z,982.21
2017-07-21T17:23:51.317Z,982.17
2017-07-21T17:24:48.713Z,982.22
2017-07-21T17:25:45.988Z,982.21
2017-07-21T17:26:43.256Z,982.26
2017-07-21T17:27:40.537Z,982.19
2017-07-21T17:28:37.838Z,982.26
2017-07-21T17:29:35.093Z,982.18
2017-07-21T17:30:32.384Z,982.25
2017-07-21T17:31:29.643Z,982.22
2017-07-21T17:32:27.040Z,982.25
2017-07-21T17:33:24.277Z,982.28
2017-07-21T17:34:21.732Z,982.33
2017-07-21T17:35:19.024Z,982.27
2017-07-21T17:36:16.285Z,982.26
2017-07-21T17:37:13.581Z,982.20
2017-07-21T17:38:10.888Z,982.23
2017-07-21T17:39:08.209Z,982.22
2017-07-21T17:40:05.516Z,982.23
2017-07-21T17:41:02.913Z,982.24
2017-07-21T17:42:00.240Z,982.25
2017-07-21T17:42:57.684Z,982.33
2017-07-21T17:43:55.041Z,982.26
2017-07-21T17:44:52.374Z,982.25
2017-07-21T17:45:49.728Z,982.24
2017-07-21T17:46:47.204Z,982.32
2017-07-21T17:47:44.541Z,982.30
2017-07-21T17:48:41.815Z,982.24
2017-07-21T17:49:39.152Z,982.27
2017-07-21T17:50:36.520Z,982.30
2017-07-21T17:51:33.868Z,982.31
2017-07-21T17:52:31.168Z,982.40
2017-07-21T17:53:28.649Z,982.34
2017-07-21T17:54:25.995Z,982.41
2017-07-21T17:55:23.407Z,982.39
2017-07-21T17:56:20.867Z,982.44
2017-07-21T17:57:18.237Z,982.35
2017-07-21T17:58:15.485Z,982.40
2017-07-21T17:59:12.762Z,982.35
2017-07-21T18:00:10.089Z,982.39
2017-07-21T18:01:07.377Z,982.38
2017-07-21T18:02:04.659Z,982.35
2017-07-21T18:03:01.958Z,982.44
2017-07-21T18:03:59.220Z,982.33
2017-07-21T18:04:56.485Z,982.32
2017-07-21T18:05:53.724Z,982.32
2017-07-21T18:06:51.041Z,982.33
2017-07-21T18:07:48.310Z,982.37
2017-07-21T18:08:45.597Z,982.29
2017-07-21T18:09:42.845Z,982.22
2017-07-21T18:10:40.251Z,982.31
2017-07-21T18:11:37.626Z,982.30
2017-07-21T18:12:34.910Z,982.27
2017-07-21T18:13:32.186Z,982.25
2017-07-21T18:14:29.456Z,982.33
2017-07-21T18:15:26.724Z,982.29
2017-07-21T18:16:24.080Z,982.27
2017-07-21T18:17:21.594Z,982.22
2017-07-21T18:18:18.987Z,982.28
2017-07-21T18:19:16.343Z,982.31
2017-07-21T18:20:13.748Z,982.32
2017-07-21T18:21:10.989Z,982.23
2017-07-21T18:22:08.288Z,982.30
2017-07-21T18:23:05.591Z,982.28
2017-07-21T18:24:02.941Z,982.30
2017-07-21T18:25:00.184Z,982.24
2017-07-21T18:25:57.465Z,982.24
2017-07-21T18:26:54.713Z,982.30
2017-07-21T18:27:52.095Z,982.35
2017-07-21T18:28:49.463Z,982.30
2017-07-21T18:29:46.753Z,982.34
2017-07-21T18:30:44.008Z,982.33
2017-07-21T18:31:41.293Z,982.29
2017-07-21T18:32:38.677Z,982.32
2017-07-21T18:33:35.966Z,982.20
2017-07-21T18:34:33.494Z,982.19
2017-07-21T18:35:30.837Z,982.20
2017-07-21T18:36:28.078Z,982.12
2017-07-21T18:37:25.345Z,982.10
2017-07-21T18:38:22.617Z,982.09
2017-07-21T18:39:19.976Z,982.07
2017-07-21T18:40:17.221Z,982.09
2017-07-21T18:41:14.500Z,982.06
2017-07-21T18:42:11.754Z,982.10
2017-07-21T18:43:09.101Z,982.13
2017-07-21T18:44:06.413Z,982.06
2017-07-21T18:45:03.716Z,982.13
2017-07-21T18:46:00.982Z,982.12
2017-07-21T18:46:58.370Z,982.13
2017-07-21T18:47:55.838Z,982.03
2017-07-21T18:48:53.407Z,982.10
2017-07-21T18:49:50.846Z,982.07
2017-07-21T18:50:48.169Z,982.11
2017-07-21T18:51:45.635Z,982.00
2017-07-21T18:52:43.037Z,981.94
2017-07-21T18:53:40.449Z,981.96
2017-07-21T18:54:37.954Z,981.94
2017-07-21T18:55:35.318Z,981.88
2017-07-21T18:56:32.626Z,981.90
2017-07-21T18:57:29.945Z,981.92
2017-07-21T18:58:27.250Z,981.87
2017-07-21T18:59:24.596Z,981.82
2017-07-21T19:00:21.860Z,981.84
2017-07-21T19:01:19.283Z,981.91
2017-07-21T19:02:16.569Z,981.91
2017-07-21T19:03:13.884Z,981.90
2017-07-21T19:04:11.442Z,981.85
2017-07-21T19:05:08.831Z,981.88
2017-07-21T19:06:06.181Z,981.93